New Creation — 3EGO6 — position and weather

sailwx.info

Track history (hours):
 
Tides and Currents Weather Stations Pressure Air Temp Water Temp Dewpoint Dewpoint Depression Visibility Wind Speed Wind Dir Waves Ship Positions

New Creation

Last reported at 2016-Jul-15 13:32 UTC. Time now 2016-Jul-27 13:34 UTC.
Position S 26°58' E 153°47'.
Warning: this ship's position is 12 days out of date.

Length 176 m; draft 10.3 m.

Type: Cargo ship. MMSI: 353507000.

Date/timePositionNaut miles runAvg speedWind from/ knotsBaromVisibWave heightAir tempDewpointWater temp
2016-Jul-15 13:32S 26°58' E 153°47'33710.9
2016-Jul-14 06:31S 32°31' E 152°46'1212.0
2016-Jul-14 05:33S 32°40' E 152°36'1312.5
2016-Jul-14 04:33S 32°48' E 152°26'1312.6
2016-Jul-14 03:33S 32°53' E 152°12'1312.7
2016-Jul-14 02:33S 32°56' E 151°57'8 8.2
2016-Jul-14 01:31S 32°55' E 151°47'1 0.2
2016-Jul-13 22:29S 32°55' E 151°46'0 0.0
2016-Jul-13 21:29S 32°55' E 151°46'0 0.0
2016-Jul-13 19:29S 32°55' E 151°46'0 0.0
2016-Jul-13 18:29S 32°55' E 151°46'0 0.0
2016-Jul-13 17:32S 32°55' E 151°46'0 0.0
2016-Jul-13 16:32S 32°55' E 151°46'0 0.0
2016-Jul-13 05:20S 32°55' E 151°46'0 0.0
2016-Jul-13 04:11S 32°55' E 151°46'0 0.0
2016-Jul-13 03:29S 32°55' E 151°46'0 0.0
2016-Jul-13 02:32S 32°55' E 151°46'0 0.0
2016-Jul-13 01:32S 32°55' E 151°46'0 0.0
2016-Jul-12 21:23S 32°55' E 151°46'0 0.0
2016-Jul-12 20:32S 32°55' E 151°46'0 0.0
2016-Jul-12 19:32S 32°55' E 151°46'0 0.0
2016-Jul-12 18:26S 32°55' E 151°46'0 0.0
2016-Jul-12 17:32S 32°55' E 151°46'0 0.0
2016-Jul-12 16:29S 32°55' E 151°46'0 0.0
2016-Jul-12 15:32S 32°55' E 151°46'0 0.0
2016-Jul-12 14:29S 32°55' E 151°46'0 0.0
2016-Jul-12 13:29S 32°55' E 151°46'0 0.0
2016-Jul-12 12:32S 32°55' E 151°46'0 0.0
2016-Jul-12 11:32S 32°55' E 151°46'0 0.0
2016-Jul-12 10:32S 32°55' E 151°46'0 0.0
2016-Jul-12 09:32S 32°55' E 151°46'0 0.0
2016-Jul-12 08:20S 32°55' E 151°46'0 0.0
2016-Jul-12 07:29S 32°55' E 151°46'0 0.0
2016-Jul-12 06:29S 32°55' E 151°46'0 0.0
2016-Jul-12 05:29S 32°55' E 151°46'0 0.0
2016-Jul-12 04:32S 32°55' E 151°46'0 0.0
2016-Jul-12 03:29S 32°55' E 151°46'0 0.0
2016-Jul-12 02:32S 32°55' E 151°46'0 0.0
2016-Jul-12 01:29S 32°55' E 151°46'0 0.0
2016-Jul-12 00:32S 32°55' E 151°46'0 0.0
2016-Jul-11 23:29S 32°55' E 151°46'0 0.0
2016-Jul-11 22:32S 32°55' E 151°46'0 0.0
2016-Jul-11 21:32S 32°55' E 151°46'0 0.0
2016-Jul-11 20:32S 32°55' E 151°46'0 0.0
2016-Jul-11 19:32S 32°55' E 151°46'0 0.0
2016-Jul-11 18:32S 32°55' E 151°46'0 0.0
2016-Jul-11 17:32S 32°55' E 151°46'0 0.0
2016-Jul-11 16:32S 32°55' E 151°46'0 0.0
2016-Jul-11 15:32S 32°55' E 151°46'0 0.0
2016-Jul-11 14:17S 32°55' E 151°46'0 0.0
2016-Jul-11 13:32S 32°55' E 151°46'0 0.0
2016-Jul-11 12:32S 32°55' E 151°46'0 0.0
2016-Jul-11 09:32S 32°55' E 151°46'0 0.0
2016-Jul-11 08:32S 32°55' E 151°46'0 0.0
2016-Jul-11 07:32S 32°55' E 151°46'0 0.0
2016-Jul-11 06:29S 32°55' E 151°46'0 0.0
2016-Jul-11 04:29S 32°55' E 151°46'0 0.0
2016-Jul-11 03:32S 32°55' E 151°46'0 0.0
2016-Jul-11 02:32S 32°55' E 151°46'0 0.0
2016-Jul-11 01:32S 32°55' E 151°46'0 0.0
2016-Jul-10 23:23S 32°55' E 151°46'0 0.0
2016-Jul-10 16:14S 32°55' E 151°46'0 0.0
2016-Jul-10 15:32S 32°55' E 151°46'0 0.0
2016-Jul-10 14:17S 32°55' E 151°46'0 0.0
2016-Jul-10 13:26S 32°55' E 151°46'0 0.0
2016-Jul-10 06:23S 32°55' E 151°46'0 0.0
2016-Jul-10 05:29S 32°55' E 151°46'0 0.0
2016-Jul-10 04:32S 32°55' E 151°46'0 0.0
2016-Jul-10 03:26S 32°55' E 151°46'0 0.0
2016-Jul-10 02:29S 32°55' E 151°46'0 0.0
2016-Jul-10 01:29S 32°55' E 151°46'0 0.0
2016-Jul-10 00:32S 32°55' E 151°46'0 0.0
2016-Jul-09 23:32S 32°55' E 151°46'0 0.0
2016-Jul-09 21:26S 32°55' E 151°46'0 0.0
2016-Jul-09 20:26S 32°55' E 151°46'0 0.0
2016-Jul-09 19:32S 32°55' E 151°46'1 0.7
2016-Jul-09 18:33S 32°55' E 151°47'8 7.4
2016-Jul-09 17:29S 33°01' E 151°54'3 3.6
2016-Jul-09 16:33S 33°03' E 151°57'2 1.5
2016-Jul-09 15:33S 33°03' E 151°59'2 1.6
2016-Jul-09 14:33S 33°04' E 152°00'2 1.6
2016-Jul-09 13:33S 33°05' E 152°02'2 1.7
2016-Jul-09 12:33S 33°06' E 152°04'2 1.8
2016-Jul-09 11:34S 33°07' E 152°05'2 2.0
2016-Jul-09 10:33S 33°07' E 152°08'1010.3
2016-Jul-09 09:33S 32°58' E 152°13'1 1.2
2016-Jul-09 08:33S 32°56' E 152°13'1 1.4
2016-Jul-09 07:33S 32°58' E 152°13'1 1.3
2016-Jul-09 06:33S 32°59' E 152°12'3 1.5
2016-Jul-09 04:33S 33°02' E 152°12'1 1.4
2016-Jul-09 03:33S 33°03' E 152°12'1 1.1
2016-Jul-09 02:33S 33°02' E 152°11'8 7.7
2016-Jul-09 01:33S 32°56' E 152°07'3 2.7
2016-Jul-09 00:33S 32°58' E 152°08'3 2.6
2016-Jul-08 23:33S 33°00' E 152°10'2 2.4
2016-Jul-08 22:33S 33°03' E 152°11'2 2.1
2016-Jul-08 21:33S 33°04' E 152°12'5 4.9
2016-Jul-08 20:33S 32°59' E 152°13'5 4.7
2016-Jul-08 19:34S 32°55' E 152°12'2 1.9
2016-Jul-08 18:34S 32°57' E 152°12'2 1.6
2016-Jul-08 17:33S 32°58' E 152°12'2 1.6
2016-Jul-08 16:33S 33°00' E 152°12'2 1.6
2016-Jul-08 15:33S 33°02' E 152°12'1 1.5
2016-Jul-08 14:33S 33°03' E 152°12'1 1.3
2016-Jul-08 13:33S 33°02' E 152°11'8 8.1
2016-Jul-08 12:33S 32°55' E 152°05'1 1.5
2016-Jul-08 11:34S 32°57' E 152°05'2 1.6
2016-Jul-08 10:33S 32°58' E 152°04'2 1.5
2016-Jul-08 09:34S 32°60' E 152°04'1 1.5
2016-Jul-08 08:33S 33°01' E 152°04'2 1.5
2016-Jul-08 07:32S 33°03' E 152°04'2 1.5
2016-Jul-08 06:33S 33°04' E 152°04'7 3.4
2016-Jul-08 04:33S 33°03' E 151°56'3 2.6
2016-Jul-08 03:21S 33°03' E 151°52'1 1.0
2016-Jul-08 02:33S 33°03' E 151°53'1 1.4
2016-Jul-08 01:33S 33°04' E 151°54'1 1.5
2016-Jul-08 00:33S 33°04' E 151°56'2 1.6
2016-Jul-07 23:33S 33°05' E 151°58'1 1.3
2016-Jul-07 22:33S 33°05' E 151°59'4 4.2
2016-Jul-07 21:33S 33°01' E 151°57'1 0.7
2016-Jul-07 20:33S 33°02' E 151°57'2 1.8
2016-Jul-07 19:33S 33°03' E 151°59'2 1.9
2016-Jul-07 18:33S 33°04' E 152°01'2 1.9
2016-Jul-07 17:34S 33°05' E 152°03'5 5.4
2016-Jul-07 16:33S 33°01' E 152°07'9 8.9
2016-Jul-07 15:33S 32°54' E 152°13'2 2.4
2016-Jul-07 14:33S 32°51' E 152°14'1 1.5
2016-Jul-07 13:33S 32°53' E 152°13'2 1.6
2016-Jul-07 12:33S 32°54' E 152°12'2 1.8
2016-Jul-07 11:34S 32°56' E 152°11'2 2.0
2016-Jul-07 10:33S 32°57' E 152°10'2 1.9
2016-Jul-07 09:33S 32°59' E 152°09'2 2.0
2016-Jul-07 08:34S 33°01' E 152°09'1 0.8
2016-Jul-07 07:33S 33°01' E 152°10'2 2.1
2016-Jul-07 06:33S 33°00' E 152°12'2 2.3
2016-Jul-07 05:33S 32°58' E 152°13'2 2.0
2016-Jul-07 04:31S 32°56' E 152°14'2 1.7
2016-Jul-07 03:33S 32°55' E 152°15'1 1.2
2016-Jul-07 02:31S 32°54' E 152°15'2 2.1
2016-Jul-07 01:33S 32°54' E 152°13'2 2.3
2016-Jul-07 00:33S 32°56' E 152°11'2 2.2
2016-Jul-06 23:33S 32°57' E 152°09'2 2.2
2016-Jul-06 22:34S 32°59' E 152°07'2 2.2
2016-Jul-06 21:33S 33°01' E 152°06'2 2.4
2016-Jul-06 20:34S 33°03' E 152°04'6 5.7
2016-Jul-06 19:33S 32°57' E 152°04'1 1.4
2016-Jul-06 18:33S 32°58' E 152°03'3 3.3
2016-Jul-06 17:33S 33°01' E 152°02'5 5.2
2016-Jul-06 16:33S 33°02' E 152°08'7 6.9
2016-Jul-06 15:33S 33°02' E 152°17'7 6.6
2016-Jul-06 14:32S 33°03' E 152°25'6 5.5
2016-Jul-06 13:23S 33°04' E 152°32'2 0.1
2016-Jul-05 22:28S 33°04' E 152°34'4 4.6
2016-Jul-05 21:34S 33°05' E 152°29'4 3.9
2016-Jul-05 20:23S 33°06' E 152°24'3 3.4
2016-Jul-05 19:33S 33°06' E 152°21'3 3.5
2016-Jul-05 18:33S 33°07' E 152°17'4 3.5
2016-Jul-05 17:33S 33°07' E 152°12'3 3.3
2016-Jul-05 16:33S 33°06' E 152°09'3 3.2
2016-Jul-05 15:33S 33°05' E 152°05'5 5.1
2016-Jul-05 14:32S 33°10' E 152°05'  
Track history (hours):
 
Tides and Currents Weather Stations Pressure Air Temp Water Temp Dewpoint Dewpoint Depression Visibility Wind Speed Wind Dir Waves Ship Positions

New Creation

Last reported at 2016-Jul-15 13:32 UTC. Time now 2016-Jul-27 13:34 UTC.
Position S 26°58' E 153°47'.
Warning: this ship's position is 12 days out of date.

Length 176 m; draft 10.3 m.

Type: Cargo ship. MMSI: 353507000.

Date/timePositionNaut miles runAvg speedWind from/ knotsBaromVisibWave heightAir tempDewpointWater temp
2016-Jul-15 13:32S 26°58' E 153°47'33710.9
2016-Jul-14 06:31S 32°31' E 152°46'1212.0
2016-Jul-14 05:33S 32°40' E 152°36'1312.5
2016-Jul-14 04:33S 32°48' E 152°26'1312.6
2016-Jul-14 03:33S 32°53' E 152°12'1312.7
2016-Jul-14 02:33S 32°56' E 151°57'8 8.2
2016-Jul-14 01:31S 32°55' E 151°47'1 0.2
2016-Jul-13 22:29S 32°55' E 151°46'0 0.0
2016-Jul-13 21:29S 32°55' E 151°46'0 0.0
2016-Jul-13 19:29S 32°55' E 151°46'0 0.0
2016-Jul-13 18:29S 32°55' E 151°46'0 0.0
2016-Jul-13 17:32S 32°55' E 151°46'0 0.0
2016-Jul-13 16:32S 32°55' E 151°46'0 0.0
2016-Jul-13 05:20S 32°55' E 151°46'0 0.0
2016-Jul-13 04:11S 32°55' E 151°46'0 0.0
2016-Jul-13 03:29S 32°55' E 151°46'0 0.0
2016-Jul-13 02:32S 32°55' E 151°46'0 0.0
2016-Jul-13 01:32S 32°55' E 151°46'0 0.0
2016-Jul-12 21:23S 32°55' E 151°46'0 0.0
2016-Jul-12 20:32S 32°55' E 151°46'0 0.0
2016-Jul-12 19:32S 32°55' E 151°46'0 0.0
2016-Jul-12 18:26S 32°55' E 151°46'0 0.0
2016-Jul-12 17:32S 32°55' E 151°46'0 0.0
2016-Jul-12 16:29S 32°55' E 151°46'0 0.0
2016-Jul-12 15:32S 32°55' E 151°46'0 0.0
2016-Jul-12 14:29S 32°55' E 151°46'0 0.0
2016-Jul-12 13:29S 32°55' E 151°46'0 0.0
2016-Jul-12 12:32S 32°55' E 151°46'0 0.0
2016-Jul-12 11:32S 32°55' E 151°46'0 0.0
2016-Jul-12 10:32S 32°55' E 151°46'0 0.0
2016-Jul-12 09:32S 32°55' E 151°46'0 0.0
2016-Jul-12 08:20S 32°55' E 151°46'0 0.0
2016-Jul-12 07:29S 32°55' E 151°46'0 0.0
2016-Jul-12 06:29S 32°55' E 151°46'0 0.0
2016-Jul-12 05:29S 32°55' E 151°46'0 0.0
2016-Jul-12 04:32S 32°55' E 151°46'0 0.0
2016-Jul-12 03:29S 32°55' E 151°46'0 0.0
2016-Jul-12 02:32S 32°55' E 151°46'0 0.0
2016-Jul-12 01:29S 32°55' E 151°46'0 0.0
2016-Jul-12 00:32S 32°55' E 151°46'0 0.0
2016-Jul-11 23:29S 32°55' E 151°46'0 0.0
2016-Jul-11 22:32S 32°55' E 151°46'0 0.0
2016-Jul-11 21:32S 32°55' E 151°46'0 0.0
2016-Jul-11 20:32S 32°55' E 151°46'0 0.0
2016-Jul-11 19:32S 32°55' E 151°46'0 0.0
2016-Jul-11 18:32S 32°55' E 151°46'0 0.0
2016-Jul-11 17:32S 32°55' E 151°46'0 0.0
2016-Jul-11 16:32S 32°55' E 151°46'0 0.0
2016-Jul-11 15:32S 32°55' E 151°46'0 0.0
2016-Jul-11 14:17S 32°55' E 151°46'0 0.0
2016-Jul-11 13:32S 32°55' E 151°46'0 0.0
2016-Jul-11 12:32S 32°55' E 151°46'0 0.0
2016-Jul-11 09:32S 32°55' E 151°46'0 0.0
2016-Jul-11 08:32S 32°55' E 151°46'0 0.0
2016-Jul-11 07:32S 32°55' E 151°46'0 0.0
2016-Jul-11 06:29S 32°55' E 151°46'0 0.0
2016-Jul-11 04:29S 32°55' E 151°46'0 0.0
2016-Jul-11 03:32S 32°55' E 151°46'0 0.0
2016-Jul-11 02:32S 32°55' E 151°46'0 0.0
2016-Jul-11 01:32S 32°55' E 151°46'0 0.0
2016-Jul-10 23:23S 32°55' E 151°46'0 0.0
2016-Jul-10 16:14S 32°55' E 151°46'0 0.0
2016-Jul-10 15:32S 32°55' E 151°46'0 0.0
2016-Jul-10 14:17S 32°55' E 151°46'0 0.0
2016-Jul-10 13:26S 32°55' E 151°46'0 0.0
2016-Jul-10 06:23S 32°55' E 151°46'0 0.0
2016-Jul-10 05:29S 32°55' E 151°46'0 0.0
2016-Jul-10 04:32S 32°55' E 151°46'0 0.0
2016-Jul-10 03:26S 32°55' E 151°46'0 0.0
2016-Jul-10 02:29S 32°55' E 151°46'0 0.0
2016-Jul-10 01:29S 32°55' E 151°46'0 0.0
2016-Jul-10 00:32S 32°55' E 151°46'0 0.0
2016-Jul-09 23:32S 32°55' E 151°46'0 0.0
2016-Jul-09 21:26S 32°55' E 151°46'0 0.0
2016-Jul-09 20:26S 32°55' E 151°46'0 0.0
2016-Jul-09 19:32S 32°55' E 151°46'1 0.7
2016-Jul-09 18:33S 32°55' E 151°47'8 7.4
2016-Jul-09 17:29S 33°01' E 151°54'3 3.6
2016-Jul-09 16:33S 33°03' E 151°57'2 1.5
2016-Jul-09 15:33S 33°03' E 151°59'2 1.6
2016-Jul-09 14:33S 33°04' E 152°00'2 1.6
2016-Jul-09 13:33S 33°05' E 152°02'2 1.7
2016-Jul-09 12:33S 33°06' E 152°04'2 1.8
2016-Jul-09 11:34S 33°07' E 152°05'2 2.0
2016-Jul-09 10:33S 33°07' E 152°08'1010.3
2016-Jul-09 09:33S 32°58' E 152°13'1 1.2
2016-Jul-09 08:33S 32°56' E 152°13'1 1.4
2016-Jul-09 07:33S 32°58' E 152°13'1 1.3
2016-Jul-09 06:33S 32°59' E 152°12'3 1.5
2016-Jul-09 04:33S 33°02' E 152°12'1 1.4
2016-Jul-09 03:33S 33°03' E 152°12'1 1.1
2016-Jul-09 02:33S 33°02' E 152°11'8 7.7
2016-Jul-09 01:33S 32°56' E 152°07'3 2.7
2016-Jul-09 00:33S 32°58' E 152°08'3 2.6
2016-Jul-08 23:33S 33°00' E 152°10'2 2.4
2016-Jul-08 22:33S 33°03' E 152°11'2 2.1
2016-Jul-08 21:33S 33°04' E 152°12'5 4.9
2016-Jul-08 20:33S 32°59' E 152°13'5 4.7
2016-Jul-08 19:34S 32°55' E 152°12'2 1.9
2016-Jul-08 18:34S 32°57' E 152°12'2 1.6
2016-Jul-08 17:33S 32°58' E 152°12'2 1.6
2016-Jul-08 16:33S 33°00' E 152°12'2 1.6
2016-Jul-08 15:33S 33°02' E 152°12'1 1.5
2016-Jul-08 14:33S 33°03' E 152°12'1 1.3
2016-Jul-08 13:33S 33°02' E 152°11'8 8.1
2016-Jul-08 12:33S 32°55' E 152°05'1 1.5
2016-Jul-08 11:34S 32°57' E 152°05'2 1.6
2016-Jul-08 10:33S 32°58' E 152°04'2 1.5
2016-Jul-08 09:34S 32°60' E 152°04'1 1.5
2016-Jul-08 08:33S 33°01' E 152°04'2 1.5
2016-Jul-08 07:32S 33°03' E 152°04'2 1.5
2016-Jul-08 06:33S 33°04' E 152°04'7 3.4
2016-Jul-08 04:33S 33°03' E 151°56'3 2.6
2016-Jul-08 03:21S 33°03' E 151°52'1 1.0
2016-Jul-08 02:33S 33°03' E 151°53'1 1.4
2016-Jul-08 01:33S 33°04' E 151°54'1 1.5
2016-Jul-08 00:33S 33°04' E 151°56'2 1.6
2016-Jul-07 23:33S 33°05' E 151°58'1 1.3
2016-Jul-07 22:33S 33°05' E 151°59'4 4.2
2016-Jul-07 21:33S 33°01' E 151°57'1 0.7
2016-Jul-07 20:33S 33°02' E 151°57'2 1.8
2016-Jul-07 19:33S 33°03' E 151°59'2 1.9
2016-Jul-07 18:33S 33°04' E 152°01'2 1.9
2016-Jul-07 17:34S 33°05' E 152°03'5 5.4
2016-Jul-07 16:33S 33°01' E 152°07'9 8.9
2016-Jul-07 15:33S 32°54' E 152°13'2 2.4
2016-Jul-07 14:33S 32°51' E 152°14'1 1.5
2016-Jul-07 13:33S 32°53' E 152°13'2 1.6
2016-Jul-07 12:33S 32°54' E 152°12'2 1.8
2016-Jul-07 11:34S 32°56' E 152°11'2 2.0
2016-Jul-07 10:33S 32°57' E 152°10'2 1.9
2016-Jul-07 09:33S 32°59' E 152°09'2 2.0
2016-Jul-07 08:34S 33°01' E 152°09'1 0.8
2016-Jul-07 07:33S 33°01' E 152°10'2 2.1
2016-Jul-07 06:33S 33°00' E 152°12'2 2.3
2016-Jul-07 05:33S 32°58' E 152°13'2 2.0
2016-Jul-07 04:31S 32°56' E 152°14'2 1.7
2016-Jul-07 03:33S 32°55' E 152°15'1 1.2
2016-Jul-07 02:31S 32°54' E 152°15'2 2.1
2016-Jul-07 01:33S 32°54' E 152°13'2 2.3
2016-Jul-07 00:33S 32°56' E 152°11'2 2.2
2016-Jul-06 23:33S 32°57' E 152°09'2 2.2
2016-Jul-06 22:34S 32°59' E 152°07'2 2.2
2016-Jul-06 21:33S 33°01' E 152°06'2 2.4
2016-Jul-06 20:34S 33°03' E 152°04'6 5.7
2016-Jul-06 19:33S 32°57' E 152°04'1 1.4
2016-Jul-06 18:33S 32°58' E 152°03'3 3.3
2016-Jul-06 17:33S 33°01' E 152°02'5 5.2
2016-Jul-06 16:33S 33°02' E 152°08'7 6.9
2016-Jul-06 15:33S 33°02' E 152°17'7 6.6
2016-Jul-06 14:32S 33°03' E 152°25'6 5.5
2016-Jul-06 13:23S 33°04' E 152°32'2 0.1
2016-Jul-05 22:28S 33°04' E 152°34'4 4.6
2016-Jul-05 21:34S 33°05' E 152°29'4 3.9
2016-Jul-05 20:23S 33°06' E 152°24'3 3.4
2016-Jul-05 19:33S 33°06' E 152°21'3 3.5
2016-Jul-05 18:33S 33°07' E 152°17'4 3.5
2016-Jul-05 17:33S 33°07' E 152°12'3 3.3
2016-Jul-05 16:33S 33°06' E 152°09'3 3.2
2016-Jul-05 15:33S 33°05' E 152°05'5 5.1
2016-Jul-05 14:32S 33°10' E 152°05'  

Dump ship's entire track history